Time;durP1;ratioP1;P1;durP2;ratioP2;P2;SDS_P1;SDS_P2;PMS_P1;PMS_P2;Temp;Humidity;BMP_temperature;BMP_pressure;BME280_temperature;BME280_humidity;BME280_pressure;Samples;Min_cycle;Max_cycle;Signal;HPM_P1;HPM_P2
2022/08/20 00:00:29;;;;;;;7.53;2.22;;;18.50;99.90;;;;;;5042524;28;20490;-80
2022/08/20 00:02:59;;;;;;;4.70;1.98;;;18.50;99.90;;;;;;5035525;28;20043;-80
2022/08/20 00:05:41;;;;;;;3.95;1.80;;;18.50;99.90;;;;;;5045951;28;20052;-80
2022/08/20 00:08:08;;;;;;;2.20;1.65;;;18.50;99.90;;;;;;5047130;28;20095;-80
2022/08/20 00:10:35;;;;;;;2.90;1.90;;;18.50;99.90;;;;;;5031067;28;20447;-82
2022/08/20 00:13:04;;;;;;;5.10;1.92;;;18.40;99.90;;;;;;5048720;28;20044;-82
2022/08/20 00:15:33;;;;;;;3.35;1.60;;;18.40;99.90;;;;;;5049507;28;20083;-82
2022/08/20 00:18:00;;;;;;;2.78;1.42;;;18.40;99.90;;;;;;5050251;28;20064;-82
2022/08/20 00:20:28;;;;;;;3.63;1.80;;;18.40;99.90;;;;;;5047287;28;20053;-82
2022/08/20 00:22:55;;;;;;;5.15;1.90;;;18.40;99.90;;;;;;5045676;28;20472;-82
2022/08/20 00:25:22;;;;;;;2.50;1.40;;;18.40;99.90;;;;;;5011843;28;20124;-82
2022/08/20 00:27:48;;;;;;;2.97;1.50;;;18.40;99.90;;;;;;5048310;28;20344;-82
2022/08/20 00:30:14;;;;;;;2.03;1.50;;;18.40;99.90;;;;;;5032478;28;20093;-82
2022/08/20 00:32:49;;;;;;;2.40;1.13;;;18.30;99.90;;;;;;5034259;28;20079;-82
2022/08/20 00:35:19;;;;;;;7.05;1.95;;;18.30;99.90;;;;;;5062643;23;20491;-81
2022/08/20 00:37:45;;;;;;;3.15;1.67;;;18.30;99.90;;;;;;5034116;28;20430;-81
2022/08/20 00:40:13;;;;;;;2.75;1.80;;;18.30;99.90;;;;;;5041718;28;20495;-81
2022/08/20 00:42:49;;;;;;;2.80;1.60;;;18.30;99.90;;;;;;5027655;28;20572;-81
2022/08/20 00:45:17;;;;;;;3.40;1.80;;;18.20;99.90;;;;;;5038557;28;20115;-81
2022/08/20 00:47:43;;;;;;;3.97;2.10;;;18.20;99.90;;;;;;5041793;28;20558;-81
2022/08/20 00:50:16;;;;;;;2.60;1.73;;;18.10;99.90;;;;;;5041692;28;20052;-81
2022/08/20 00:52:47;;;;;;;5.07;1.90;;;18.00;99.90;;;;;;5041715;28;20119;-81
2022/08/20 00:55:14;;;;;;;2.58;1.50;;;17.90;99.90;;;;;;5027907;28;20053;-81
2022/08/20 00:57:45;;;;;;;3.63;1.27;;;17.90;99.90;;;;;;5025368;28;20060;-81
2022/08/20 01:00:24;;;;;;;3.72;2.00;;;17.80;99.90;;;;;;5037833;28;20065;-81
2022/08/20 01:02:50;;;;;;;3.63;1.73;;;17.80;99.90;;;;;;5021746;28;20059;-81
2022/08/20 01:05:17;;;;;;;2.75;1.90;;;17.80;99.90;;;;;;5044018;28;20500;-81
2022/08/20 01:07:44;;;;;;;2.25;1.40;;;17.80;99.90;;;;;;5022228;28;20116;-81
2022/08/20 01:10:16;;;;;;;3.10;1.58;;;17.80;99.90;;;;;;5006493;28;20495;-81
2022/08/20 01:12:45;;;;;;;2.83;1.40;;;17.80;99.90;;;;;;5039618;28;20073;-81
2022/08/20 01:15:17;;;;;;;3.13;1.65;;;17.80;99.90;;;;;;5044245;28;20045;-81
2022/08/20 01:17:48;;;;;;;3.97;1.83;;;17.70;99.90;;;;;;5040574;28;20045;-81
2022/08/20 01:20:15;;;;;;;4.28;2.10;;;17.70;99.90;;;;;;5041869;28;20044;-81
2022/08/20 01:26:08;;;;;;;4.35;1.85;;;17.60;99.90;;;;;;5045916;28;20057;-81
2022/08/20 01:28:40;;;;;;;4.07;1.80;;;17.50;99.90;;;;;;5048880;28;20036;-81
2022/08/20 01:31:09;;;;;;;2.65;1.58;;;17.50;99.90;;;;;;5040440;28;20042;-81
2022/08/20 01:33:36;;;;;;;2.05;1.42;;;17.50;99.90;;;;;;5043424;28;20967;-81
2022/08/20 01:36:03;;;;;;;3.92;1.75;;;17.60;99.90;;;;;;5038273;28;20045;-81
2022/08/20 01:38:29;;;;;;;2.33;1.30;;;17.60;99.90;;;;;;5027732;28;20041;-81
2022/08/20 01:41:23;;;;;;;3.90;1.70;;;17.70;99.90;;;;;;5048441;28;20405;-81
2022/08/20 01:43:55;;;;;;;2.47;1.27;;;17.70;99.90;;;;;;5035722;28;20068;-81
2022/08/20 01:46:29;;;;;;;3.58;1.55;;;17.70;99.90;;;;;;5045062;28;20479;-81
2022/08/20 01:48:57;;;;;;;2.72;1.60;;;17.70;99.90;;;;;;5047818;28;20090;-81
2022/08/20 01:51:27;;;;;;;3.47;1.60;;;17.70;99.90;;;;;;5045169;28;20037;-81
2022/08/20 01:53:55;;;;;;;4.30;1.90;;;17.70;99.90;;;;;;5032336;28;20079;-81
2022/08/20 01:56:26;;;;;;;3.90;2.17;;;17.60;99.90;;;;;;5030242;28;20439;-80
2022/08/20 01:58:54;;;;;;;10.68;1.90;;;17.60;99.90;;;;;;5042823;28;20052;-80
2022/08/20 02:01:35;;;;;;;3.17;1.70;;;17.50;99.90;;;;;;5050534;28;20075;-81
2022/08/20 02:04:03;;;;;;;1.95;1.50;;;17.40;99.90;;;;;;5053826;28;20041;-81
2022/08/20 02:06:31;;;;;;;2.78;1.63;;;17.30;99.90;;;;;;5045442;28;20103;-81
2022/08/20 02:08:59;;;;;;;2.53;1.60;;;17.20;99.90;;;;;;5046870;28;20033;-79
2022/08/20 02:11:28;;;;;;;3.40;1.80;;;17.10;99.90;;;;;;5042090;28;20049;-78
2022/08/20 02:13:54;;;;;;;5.80;1.98;;;17.10;99.90;;;;;;5040448;28;20049;-78
2022/08/20 02:16:22;;;;;;;4.72;2.33;;;17.00;99.90;;;;;;5029962;28;20041;-79
2022/08/20 02:18:53;;;;;;;2.28;1.50;;;16.90;99.90;;;;;;5042550;28;20068;-78
2022/08/20 02:21:20;;;;;;;5.22;1.88;;;16.80;99.90;;;;;;5053381;28;20052;-78
2022/08/20 02:23:47;;;;;;;2.63;1.60;;;16.80;99.90;;;;;;5030068;28;20041;-81
2022/08/20 02:26:13;;;;;;;2.95;1.60;;;16.70;99.90;;;;;;5039932;28;20495;-81
2022/08/20 02:28:39;;;;;;;3.55;1.48;;;16.60;99.90;;;;;;5020089;28;20071;-81
2022/08/20 02:31:07;;;;;;;2.42;1.30;;;16.50;99.90;;;;;;5043318;28;20488;-81
2022/08/20 02:33:34;;;;;;;3.47;1.48;;;16.40;99.90;;;;;;5043901;28;20468;-81
2022/08/20 02:35:59;;;;;;;3.65;1.90;;;16.40;99.90;;;;;;5030715;28;20503;-81
2022/08/20 02:38:25;;;;;;;2.60;1.50;;;16.40;99.90;;;;;;5031906;28;20114;-81
2022/08/20 02:40:51;;;;;;;3.17;1.63;;;16.40;99.90;;;;;;5046795;28;20045;-79
2022/08/20 02:43:18;;;;;;;2.58;1.48;;;16.40;99.90;;;;;;5050174;28;20048;-79
2022/08/20 02:45:44;;;;;;;2.53;1.50;;;16.40;99.90;;;;;;5027700;28;20066;-79
2022/08/20 02:48:19;;;;;;;2.67;1.60;;;16.40;99.90;;;;;;5043004;28;20136;-78
2022/08/20 02:50:48;;;;;;;2.15;1.40;;;16.30;99.90;;;;;;5047102;28;20047;-79
2022/08/20 02:53:15;;;;;;;3.03;1.40;;;16.40;99.90;;;;;;5047861;28;20476;-79
2022/08/20 02:55:41;;;;;;;3.38;1.88;;;16.30;99.90;;;;;;5043662;28;20041;-78
2022/08/20 02:58:07;;;;;;;2.63;1.45;;;16.30;99.90;;;;;;5044180;28;20140;-80
2022/08/20 03:00:32;;;;;;;3.67;1.38;;;16.30;99.90;;;;;;5012755;28;20037;-79
2022/08/20 03:02:59;;;;;;;3.22;1.67;;;16.30;99.90;;;;;;5043570;28;20168;-80
2022/08/20 03:05:24;;;;;;;3.20;1.60;;;16.30;99.90;;;;;;5048559;28;20048;-80
2022/08/20 03:07:52;;;;;;;3.38;1.67;;;16.30;99.90;;;;;;5028594;28;20037;-81
2022/08/20 03:10:24;;;;;;;2.58;1.70;;;16.30;99.90;;;;;;5026440;28;20499;-81
2022/08/20 03:12:51;;;;;;;6.05;1.90;;;16.30;99.90;;;;;;5047349;28;20053;-80
2022/08/20 03:15:17;;;;;;;2.63;1.63;;;16.30;99.90;;;;;;5022285;28;20041;-81
2022/08/20 03:17:43;;;;;;;3.70;1.85;;;16.30;99.90;;;;;;5047751;28;20052;-81
2022/08/20 03:20:11;;;;;;;3.88;1.83;;;16.20;99.90;;;;;;5026585;28;20073;-81
2022/08/20 03:22:36;;;;;;;3.05;1.45;;;16.20;99.90;;;;;;5046146;28;20033;-81
2022/08/20 03:25:03;;;;;;;2.72;1.40;;;16.20;99.90;;;;;;5029837;28;20086;-81
2022/08/20 03:27:29;;;;;;;4.03;1.80;;;16.10;99.90;;;;;;5044997;28;20049;-81
2022/08/20 03:29:55;;;;;;;4.13;1.70;;;16.10;99.90;;;;;;5041113;28;20495;-81
2022/08/20 03:32:21;;;;;;;2.53;1.60;;;16.10;99.90;;;;;;5044343;28;20049;-81
2022/08/20 03:34:47;;;;;;;3.05;1.50;;;16.10;99.90;;;;;;5028200;28;20053;-81
2022/08/20 03:37:13;;;;;;;2.13;1.23;;;16.20;99.90;;;;;;5044423;28;20179;-81
2022/08/20 03:39:39;;;;;;;3.17;1.52;;;16.10;99.90;;;;;;5042835;28;20045;-81
2022/08/20 03:42:05;;;;;;;5.45;1.83;;;16.20;99.90;;;;;;5026171;28;20415;-81
2022/08/20 03:44:31;;;;;;;2.78;1.77;;;16.20;99.90;;;;;;5046284;28;20049;-81
2022/08/20 03:46:57;;;;;;;4.45;1.42;;;16.20;99.90;;;;;;5049847;28;20533;-79
2022/08/20 03:49:23;;;;;;;2.95;1.70;;;16.20;99.90;;;;;;5045695;28;20037;-78
2022/08/20 03:51:49;;;;;;;2.38;1.40;;;16.10;99.90;;;;;;5042552;28;20037;-78
2022/08/20 03:54:15;;;;;;;2.13;1.30;;;16.10;99.90;;;;;;5043667;28;20395;-78
2022/08/20 03:56:41;;;;;;;2.63;1.17;;;16.10;99.90;;;;;;5042362;28;20044;-78
2022/08/20 03:59:07;;;;;;;2.55;1.10;;;16.10;99.90;;;;;;5030174;28;20095;-78
2022/08/20 04:01:33;;;;;;;2.67;1.55;;;16.10;99.90;;;;;;5041174;28;20044;-78
2022/08/20 04:03:59;;;;;;;4.00;1.20;;;16.10;99.90;;;;;;5024226;28;20037;-81
2022/08/20 04:06:28;;;;;;;3.92;1.40;;;16.10;99.90;;;;;;5032313;28;20064;-81
2022/08/20 04:08:54;;;;;;;3.25;1.58;;;16.00;99.90;;;;;;5044360;28;20120;-81
2022/08/20 04:11:20;;;;;;;1.90;1.27;;;16.00;99.90;;;;;;5026031;28;20424;-80
2022/08/20 04:13:46;;;;;;;1.90;1.10;;;15.90;99.90;;;;;;5041525;28;20120;-81
2022/08/20 04:16:12;;;;;;;3.95;1.45;;;15.90;99.90;;;;;;5025612;28;20048;-81
2022/08/20 04:18:38;;;;;;;3.47;1.40;;;15.90;99.90;;;;;;5025151;28;20041;-81
2022/08/20 04:21:07;;;;;;;2.88;1.30;;;15.90;99.90;;;;;;5028582;28;20088;-81
2022/08/20 04:23:32;;;;;;;2.40;1.35;;;15.90;99.90;;;;;;5009463;28;20037;-81
2022/08/20 04:25:59;;;;;;;3.55;1.52;;;15.90;99.90;;;;;;5045827;28;20111;-81
2022/08/20 04:28:27;;;;;;;1.77;1.00;;;16.00;99.90;;;;;;5026787;28;20048;-81
2022/08/20 04:31:02;;;;;;;1.95;1.10;;;16.00;99.90;;;;;;5025356;28;20037;-81
2022/08/20 04:33:29;;;;;;;1.33;1.02;;;16.00;99.90;;;;;;5055464;28;20521;-80
2022/08/20 04:36:01;;;;;;;2.05;1.40;;;16.00;99.90;;;;;;5040881;28;20571;-81
2022/08/20 04:38:28;;;;;;;2.03;1.05;;;16.00;99.90;;;;;;5041231;28;20150;-81
2022/08/20 04:41:02;;;;;;;2.65;1.00;;;15.90;99.90;;;;;;5039185;28;20084;-80
2022/08/20 04:43:34;;;;;;;1.20;0.82;;;15.80;99.90;;;;;;5025029;28;20029;-80
2022/08/20 04:46:04;;;;;;;2.97;1.30;;;15.80;99.90;;;;;;5041806;28;20448;-81
2022/08/20 04:48:31;;;;;;;4.07;1.13;;;15.70;99.90;;;;;;5047726;28;20048;-81
2022/08/20 04:50:58;;;;;;;4.35;1.30;;;15.70;99.90;;;;;;5039816;28;20045;-80
2022/08/20 04:53:26;;;;;;;3.08;1.33;;;15.60;99.90;;;;;;5043487;28;20369;-80
2022/08/20 04:55:54;;;;;;;2.55;0.90;;;15.50;99.90;;;;;;5041219;28;20131;-80
2022/08/20 04:58:27;;;;;;;4.05;1.65;;;15.50;99.90;;;;;;5039726;28;20041;-80
2022/08/20 05:00:55;;;;;;;2.03;1.25;;;15.40;99.90;;;;;;5044787;28;20068;-80
2022/08/20 05:03:22;;;;;;;1.50;1.00;;;15.40;99.90;;;;;;5037322;28;20116;-80
2022/08/20 05:05:49;;;;;;;3.03;1.20;;;15.50;99.90;;;;;;5042037;28;20037;-80
2022/08/20 05:08:16;;;;;;;2.25;0.98;;;15.50;99.90;;;;;;5044721;28;20494;-79
2022/08/20 05:10:42;;;;;;;1.63;0.93;;;15.40;99.90;;;;;;5041432;28;20063;-78
2022/08/20 05:13:09;;;;;;;2.25;1.02;;;15.40;99.90;;;;;;5047672;28;20398;-78
2022/08/20 05:15:37;;;;;;;1.70;0.80;;;15.40;99.90;;;;;;5028128;28;20056;-78
2022/08/20 05:18:06;;;;;;;3.55;1.13;;;15.50;99.90;;;;;;5035034;28;20049;-78
2022/08/20 05:20:38;;;;;;;2.42;0.93;;;15.50;99.90;;;;;;5062459;28;20053;-79
2022/08/20 05:23:06;;;;;;;1.30;0.90;;;15.50;99.90;;;;;;5046260;28;20033;-78
2022/08/20 05:25:32;;;;;;;2.50;1.27;;;15.50;99.90;;;;;;5045784;28;20064;-78
2022/08/20 05:28:01;;;;;;;3.30;1.35;;;15.60;99.90;;;;;;5045881;28;20076;-79
2022/08/20 05:30:32;;;;;;;3.55;0.82;;;15.60;99.90;;;;;;5034263;28;20573;-80
2022/08/20 05:33:05;;;;;;;2.38;1.10;;;15.60;99.90;;;;;;5048541;28;20045;-80
2022/08/20 05:35:37;;;;;;;2.92;1.15;;;15.60;99.90;;;;;;5046471;28;20076;-79
2022/08/20 05:38:07;;;;;;;3.22;1.23;;;15.70;99.90;;;;;;5045155;28;20053;-80
2022/08/20 05:40:33;;;;;;;1.30;0.77;;;15.80;99.90;;;;;;5045686;28;20114;-80
2022/08/20 05:42:59;;;;;;;2.83;1.20;;;15.80;99.90;;;;;;5028437;28;20044;-80
2022/08/20 05:45:25;;;;;;;2.05;1.10;;;16.00;99.90;;;;;;5044491;28;20115;-80
2022/08/20 05:47:51;;;;;;;1.13;0.90;;;16.10;99.90;;;;;;5028173;28;20128;-79
2022/08/20 05:50:17;;;;;;;3.95;1.20;;;16.20;99.90;;;;;;5045279;28;20395;-80
2022/08/20 05:52:43;;;;;;;2.53;1.27;;;16.30;99.90;;;;;;5044973;28;20049;-79
2022/08/20 05:55:12;;;;;;;1.95;1.00;;;16.40;99.90;;;;;;5033831;28;20177;-80
2022/08/20 05:57:38;;;;;;;3.17;1.08;;;16.60;99.90;;;;;;5030094;28;20399;-80
2022/08/20 06:00:08;;;;;;;2.78;1.20;;;16.70;99.90;;;;;;5012061;28;20080;-79
2022/08/20 06:05:18;;;;;;;5.05;1.33;;;17.80;99.90;;;;;;5045478;28;20517;-78
2022/08/20 06:07:44;;;;;;;2.85;1.20;;;17.10;99.90;;;;;;5034173;28;20453;-78
2022/08/20 06:10:11;;;;;;;2.10;1.20;;;17.30;99.90;;;;;;5046741;28;20436;-79
2022/08/20 06:12:37;;;;;;;7.63;1.48;;;17.40;99.90;;;;;;5044462;28;20057;-79
2022/08/20 06:15:05;;;;;;;2.85;1.23;;;18.00;99.90;;;;;;5031335;28;20071;-78
2022/08/20 06:17:32;;;;;;;1.13;0.80;;;18.30;99.90;;;;;;5019660;28;20049;-78
2022/08/20 06:20:07;;;;;;;3.15;1.50;;;18.60;99.90;;;;;;5045139;28;20056;-79
2022/08/20 06:22:34;;;;;;;3.35;1.35;;;18.80;99.90;;;;;;5039771;28;20064;-78
2022/08/20 06:25:01;;;;;;;7.13;1.30;;;19.10;99.90;;;;;;5028690;28;20124;-78
2022/08/20 06:27:26;;;;;;;3.67;1.10;;;19.60;99.90;;;;;;5045331;28;20048;-78
2022/08/20 06:29:53;;;;;;;4.80;1.15;;;20.10;99.90;;;;;;5027361;28;20036;-79
2022/08/20 06:32:21;;;;;;;1.15;1.00;;;21.60;99.90;;;;;;5028649;28;20041;-79
2022/08/20 06:34:47;;;;;;;2.75;0.77;;;23.30;99.90;;;;;;5029906;23;20058;-80
2022/08/20 06:37:19;;;;;;;3.05;0.77;;;24.70;99.90;;;;;;5018664;28;20061;-80
2022/08/20 06:39:45;;;;;;;2.13;1.10;;;25.90;99.90;;;;;;4995715;28;20054;-80
2022/08/20 06:42:11;;;;;;;2.78;1.10;;;26.90;97.80;;;;;;5000474;28;20046;-81
2022/08/20 06:44:36;;;;;;;3.50;0.98;;;28.00;95.80;;;;;;4991704;28;20037;-83
2022/08/20 06:47:04;;;;;;;2.92;0.73;;;28.60;94.60;;;;;;5000374;28;20042;-80
2022/08/20 06:49:30;;;;;;;1.48;0.73;;;29.30;94.00;;;;;;5009208;28;20038;-81
2022/08/20 06:51:56;;;;;;;2.17;1.05;;;30.00;91.80;;;;;;5004279;28;20034;-80
2022/08/20 06:54:22;;;;;;;4.40;0.85;;;30.50;90.90;;;;;;5004042;28;20423;-80
2022/08/20 06:56:48;;;;;;;2.05;0.82;;;29.70;89.40;;;;;;4970770;28;20065;-80
2022/08/20 06:59:14;;;;;;;1.92;0.95;;;29.60;89.70;;;;;;4986740;28;20048;-80
2022/08/20 07:01:40;;;;;;;3.13;0.65;;;29.50;90.50;;;;;;5004131;28;20120;-80
2022/08/20 07:04:07;;;;;;;2.10;0.63;;;29.80;89.50;;;;;;5003600;28;20096;-80
2022/08/20 07:06:33;;;;;;;3.25;0.98;;;30.10;90.10;;;;;;4986726;28;20038;-80
2022/08/20 07:08:58;;;;;;;3.10;0.80;;;30.50;88.20;;;;;;5005949;28;20135;-79
2022/08/20 07:11:25;;;;;;;4.25;1.08;;;31.10;86.30;;;;;;4987573;28;20484;-79
2022/08/20 07:13:51;;;;;;;2.78;0.60;;;31.50;84.90;;;;;;5004621;28;20033;-79
2022/08/20 07:16:17;;;;;;;1.45;0.60;;;31.90;84.90;;;;;;4985252;28;20046;-79
2022/08/20 07:18:43;;;;;;;3.38;1.02;;;32.20;83.30;;;;;;4987622;28;20432;-79
2022/08/20 07:21:10;;;;;;;2.30;0.80;;;32.60;81.50;;;;;;5007047;28;20045;-79
2022/08/20 07:23:36;;;;;;;2.83;0.98;;;32.60;80.00;;;;;;5003850;28;20088;-81
2022/08/20 07:26:02;;;;;;;0.82;0.43;;;32.70;79.90;;;;;;4987208;28;20093;-81
2022/08/20 07:28:30;;;;;;;1.98;0.70;;;32.80;79.70;;;;;;4990485;28;20037;-81
2022/08/20 07:33:42;;;;;;;3.15;0.98;;;33.40;76.00;;;;;;5009193;28;20072;-81
2022/08/20 07:36:09;;;;;;;3.20;0.40;;;33.50;75.20;;;;;;5010897;28;20049;-81
2022/08/20 07:38:36;;;;;;;1.42;0.73;;;33.20;74.70;;;;;;5006729;28;20533;-82
2022/08/20 07:41:08;;;;;;;2.72;1.00;;;33.70;76.00;;;;;;4994114;28;20038;-80
2022/08/20 07:43:34;;;;;;;3.58;0.93;;;33.80;73.60;;;;;;5013026;28;20042;-80
2022/08/20 07:46:07;;;;;;;1.58;0.73;;;33.80;72.60;;;;;;5015467;28;20084;-80
2022/08/20 07:48:34;;;;;;;1.70;0.93;;;34.10;73.40;;;;;;4999249;28;20045;-80
2022/08/20 07:51:03;;;;;;;1.65;0.75;;;34.40;73.40;;;;;;5009224;28;20124;-80
2022/08/20 07:53:33;;;;;;;3.67;0.98;;;34.60;72.40;;;;;;5009444;28;20064;-80
2022/08/20 07:56:02;;;;;;;1.63;0.60;;;34.80;72.10;;;;;;5030161;28;20419;-80
2022/08/20 07:58:29;;;;;;;4.30;0.90;;;35.30;71.90;;;;;;5012466;28;20108;-80
2022/08/20 08:00:55;;;;;;;8.18;0.70;;;35.30;67.70;;;;;;5019038;28;20088;-80
2022/08/20 08:03:20;;;;;;;2.42;0.70;;;35.20;70.70;;;;;;5011212;28;20041;-80
2022/08/20 08:05:49;;;;;;;0.40;0.30;;;35.00;67.60;;;;;;4982212;28;20030;-80
2022/08/20 08:08:22;;;;;;;3.92;1.08;;;35.30;70.10;;;;;;5006016;28;20033;-80
2022/08/20 08:10:51;;;;;;;3.08;0.77;;;35.00;66.50;;;;;;5007327;28;20046;-80
2022/08/20 08:13:17;;;;;;;1.73;0.70;;;34.90;67.30;;;;;;5003743;28;20124;-81
2022/08/20 08:15:47;;;;;;;3.70;0.75;;;34.90;67.70;;;;;;5005952;28;20438;-82
2022/08/20 08:18:23;;;;;;;2.00;0.70;;;34.90;65.30;;;;;;5014963;28;20037;-82
2022/08/20 08:20:52;;;;;;;3.55;1.00;;;34.80;67.80;;;;;;4993261;28;20049;-82
2022/08/20 08:23:22;;;;;;;2.58;0.80;;;34.70;67.50;;;;;;5008953;28;20054;-82
2022/08/20 08:25:50;;;;;;;5.55;1.10;;;34.90;65.90;;;;;;5010620;28;20045;-82
2022/08/20 08:28:17;;;;;;;2.30;0.75;;;35.30;66.00;;;;;;4991150;28;20037;-83
2022/08/20 08:30:44;;;;;;;3.60;0.93;;;35.60;66.00;;;;;;5016382;28;20040;-80
2022/08/20 08:33:27;;;;;;;1.08;0.70;;;35.60;65.60;;;;;;5010198;28;20100;-80
2022/08/20 08:35:55;;;;;;;5.10;1.17;;;35.50;65.50;;;;;;5018949;28;20049;-81
2022/08/20 08:38:22;;;;;;;1.50;0.65;;;35.60;66.30;;;;;;5005711;28;20079;-81
2022/08/20 08:40:53;;;;;;;1.85;0.73;;;35.50;66.50;;;;;;5009617;28;20043;-81
2022/08/20 08:43:23;;;;;;;3.58;0.85;;;35.60;64.40;;;;;;5029107;28;20480;-80
2022/08/20 08:46:10;;;;;;;1.73;0.75;;;35.40;65.20;;;;;;4986093;28;20047;-81
2022/08/20 08:48:44;;;;;;;1.85;0.88;;;35.40;63.40;;;;;;4988538;28;20037;-82
2022/08/20 08:51:14;;;;;;;2.45;0.75;;;35.40;65.50;;;;;;5004505;28;20100;-82
2022/08/20 08:53:46;;;;;;;2.70;0.70;;;35.70;64.80;;;;;;5012115;28;20103;-81
2022/08/20 08:56:13;;;;;;;4.45;1.10;;;36.00;65.30;;;;;;5022040;28;20041;-82
2022/08/20 08:58:41;;;;;;;2.58;0.70;;;36.20;64.20;;;;;;5006095;28;20415;-81
2022/08/20 09:01:11;;;;;;;4.47;0.80;;;36.20;62.00;;;;;;5007573;28;20049;-82
2022/08/20 09:03:42;;;;;;;3.25;1.00;;;36.30;63.60;;;;;;5008739;28;20193;-84
2022/08/20 09:06:14;;;;;;;0.30;0.30;;;36.20;62.80;;;;;;5010044;28;20037;-84
2022/08/20 09:08:51;;;;;;;2.63;1.10;;;36.40;63.30;;;;;;5021401;28;20443;-84
2022/08/20 09:11:19;;;;;;;4.80;1.15;;;36.30;61.30;;;;;;5002810;28;20049;-84
2022/08/20 09:13:44;;;;;;;2.85;0.90;;;36.20;61.10;;;;;;5005357;28;20120;-83
2022/08/20 09:16:11;;;;;;;3.75;0.90;;;36.60;63.60;;;;;;5024715;28;20551;-83
2022/08/20 09:18:38;;;;;;;0.77;0.40;;;36.50;61.60;;;;;;5022395;28;20048;-83
2022/08/20 09:21:04;;;;;;;2.20;0.73;;;35.60;60.80;;;;;;4976939;28;20506;-80
2022/08/20 09:23:30;;;;;;;2.55;1.02;;;34.50;63.60;;;;;;4987435;28;20037;-81
2022/08/20 09:25:56;;;;;;;1.88;1.00;;;35.00;62.20;;;;;;5021086;28;20446;-80
2022/08/20 09:28:22;;;;;;;3.80;0.73;;;35.50;62.60;;;;;;5011677;28;20041;-81
2022/08/20 09:30:47;;;;;;;1.55;0.65;;;35.50;61.20;;;;;;5005412;28;20163;-80
2022/08/20 09:33:13;;;;;;;3.83;0.85;;;34.70;61.60;;;;;;5005012;28;20091;-80
2022/08/20 09:35:39;;;;;;;1.38;0.52;;;34.70;63.00;;;;;;5021079;28;20504;-80
2022/08/20 09:38:06;;;;;;;2.45;0.88;;;34.50;63.50;;;;;;5004746;28;20042;-81
2022/08/20 09:40:32;;;;;;;3.72;0.90;;;34.60;62.90;;;;;;5008764;28;20483;-81
2022/08/20 09:42:57;;;;;;;0.75;0.60;;;35.00;62.80;;;;;;5021316;28;20132;-81
2022/08/20 09:45:23;;;;;;;5.25;1.15;;;35.40;61.40;;;;;;5017345;28;20057;-81
2022/08/20 09:47:49;;;;;;;3.85;0.90;;;35.70;61.90;;;;;;5005315;28;20045;-81
2022/08/20 09:50:15;;;;;;;3.75;0.95;;;36.00;60.40;;;;;;4988918;28;20044;-81
2022/08/20 09:52:44;;;;;;;1.17;0.98;;;36.40;61.30;;;;;;5024187;28;20483;-81
2022/08/20 09:55:21;;;;;;;2.97;0.93;;;36.50;59.80;;;;;;5021716;28;20061;-81
2022/08/20 09:57:48;;;;;;;2.92;0.75;;;35.60;59.90;;;;;;5022268;28;20133;-80
2022/08/20 10:00:18;;;;;;;3.20;1.23;;;34.80;62.60;;;;;;5024628;28;20073;-81
2022/08/20 10:02:44;;;;;;;4.28;1.40;;;34.30;62.10;;;;;;4992138;28;20046;-80
2022/08/20 10:05:10;;;;;;;1.80;0.63;;;33.50;62.80;;;;;;5024505;28;20036;-80
2022/08/20 10:07:40;;;;;;;2.95;0.80;;;33.10;64.20;;;;;;5025448;28;20041;-81
2022/08/20 10:10:08;;;;;;;2.17;0.82;;;33.00;63.80;;;;;;5011465;28;20052;-81
2022/08/20 10:12:34;;;;;;;3.92;1.48;;;33.60;63.00;;;;;;5022194;28;20046;-81
2022/08/20 10:15:00;;;;;;;3.25;1.10;;;34.30;62.50;;;;;;5007594;28;20049;-81
2022/08/20 10:17:26;;;;;;;4.63;1.27;;;34.90;61.30;;;;;;5028573;28;20075;-81
2022/08/20 10:19:51;;;;;;;2.38;1.00;;;34.50;61.20;;;;;;4981153;28;20050;-81
2022/08/20 10:22:17;;;;;;;4.32;1.17;;;34.10;61.60;;;;;;5027057;28;20507;-81
2022/08/20 10:24:43;;;;;;;1.83;0.55;;;33.40;62.20;;;;;;5008087;28;20124;-80
2022/08/20 10:27:08;;;;;;;2.90;0.90;;;32.40;64.50;;;;;;4978444;28;20045;-83
2022/08/20 10:29:34;;;;;;;3.05;1.10;;;32.60;63.70;;;;;;4992006;28;20053;-83
2022/08/20 10:32:10;;;;;;;1.38;0.80;;;33.40;64.20;;;;;;5010636;28;20037;-83
2022/08/20 10:34:37;;;;;;;1.58;0.70;;;34.00;61.30;;;;;;4990794;28;20057;-83
2022/08/20 10:37:02;;;;;;;1.13;0.60;;;34.70;60.10;;;;;;5020796;28;20045;-83
2022/08/20 10:39:28;;;;;;;1.67;0.68;;;35.70;60.10;;;;;;5024491;28;20042;-83
2022/08/20 10:41:54;;;;;;;3.72;0.90;;;36.10;58.80;;;;;;5007827;28;20519;-83
2022/08/20 10:44:19;;;;;;;2.85;0.88;;;35.60;59.40;;;;;;4991342;28;20053;-83
2022/08/20 10:46:45;;;;;;;1.90;0.82;;;34.50;60.40;;;;;;4982702;28;20045;-83
2022/08/20 10:49:11;;;;;;;1.67;0.68;;;34.30;61.30;;;;;;4991890;28;20050;-83
2022/08/20 10:51:36;;;;;;;2.97;1.00;;;33.80;61.80;;;;;;4981939;28;20159;-83
2022/08/20 10:54:02;;;;;;;1.33;0.80;;;32.50;61.70;;;;;;5007622;28;20056;-83
2022/08/20 10:56:28;;;;;;;2.60;0.95;;;31.30;62.40;;;;;;5007044;28;20095;-83
2022/08/20 10:58:54;;;;;;;4.93;1.10;;;30.30;63.50;;;;;;4988797;28;20049;-82
2022/08/20 11:01:19;;;;;;;1.35;0.70;;;30.10;63.20;;;;;;4989932;28;20068;-82
2022/08/20 11:03:45;;;;;;;3.10;0.85;;;30.20;63.60;;;;;;5020696;28;20042;-83
2022/08/20 11:06:12;;;;;;;3.05;0.80;;;30.90;64.20;;;;;;5007453;28;20041;-82
2022/08/20 11:08:38;;;;;;;2.97;0.82;;;31.90;63.00;;;;;;5003126;28;20080;-82
2022/08/20 11:11:04;;;;;;;1.85;0.68;;;32.80;62.40;;;;;;5006219;28;20078;-82
2022/08/20 11:13:31;;;;;;;1.98;0.75;;;33.20;63.90;;;;;;4990908;28;20095;-82
2022/08/20 11:15:57;;;;;;;2.35;0.90;;;33.80;62.90;;;;;;4992966;28;20060;-83
2022/08/20 11:18:22;;;;;;;4.50;1.40;;;34.50;62.70;;;;;;5019422;28;20038;-83
2022/08/20 11:20:48;;;;;;;1.88;0.88;;;34.80;60.20;;;;;;5026468;28;20175;-83
2022/08/20 11:23:14;;;;;;;2.63;0.80;;;34.60;60.30;;;;;;5004933;28;20103;-83
2022/08/20 11:25:40;;;;;;;2.58;1.05;;;34.70;61.70;;;;;;5027427;28;20056;-83
2022/08/20 11:28:06;;;;;;;2.72;0.90;;;34.70;60.70;;;;;;4979139;28;20029;-83
2022/08/20 11:30:34;;;;;;;3.33;0.75;;;33.90;60.60;;;;;;4993293;28;20125;-83
2022/08/20 11:33:01;;;;;;;1.85;0.73;;;32.50;61.80;;;;;;5006455;28;20081;-83
2022/08/20 11:35:29;;;;;;;3.50;1.20;;;31.40;63.70;;;;;;5006405;28;20095;-82
2022/08/20 11:37:57;;;;;;;2.97;1.48;;;30.50;63.60;;;;;;5006519;28;20381;-82
2022/08/20 11:40:23;;;;;;;3.45;1.48;;;30.00;64.60;;;;;;5006111;28;20044;-82
2022/08/20 11:42:49;;;;;;;1.10;0.60;;;29.40;65.90;;;;;;5006413;28;20167;-82
2022/08/20 11:45:15;;;;;;;1.65;0.90;;;28.60;66.10;;;;;;5019045;28;20099;-82
2022/08/20 11:47:41;;;;;;;4.03;1.50;;;28.40;67.50;;;;;;5023011;28;20037;-82
2022/08/20 11:50:15;;;;;;;2.33;0.90;;;28.00;68.10;;;;;;5010706;28;20056;-80
2022/08/20 11:52:41;;;;;;;1.48;0.82;;;27.90;68.80;;;;;;5023638;28;20403;-80
2022/08/20 11:55:10;;;;;;;2.88;1.15;;;27.90;67.80;;;;;;5006891;28;20045;-80
2022/08/20 11:57:39;;;;;;;2.45;0.95;;;27.70;68.40;;;;;;5008354;28;20120;-80
2022/08/20 12:00:11;;;;;;;5.13;1.23;;;27.30;68.40;;;;;;4988206;28;20091;-79
2022/08/20 12:02:37;;;;;;;3.40;1.00;;;27.20;69.60;;;;;;5012367;28;20041;-80
2022/08/20 12:05:04;;;;;;;1.17;0.75;;;27.30;68.60;;;;;;4996305;28;20045;-80
2022/08/20 12:07:29;;;;;;;3.33;1.02;;;27.30;68.90;;;;;;4986421;28;20041;-82
2022/08/20 12:09:55;;;;;;;3.00;1.00;;;27.40;70.60;;;;;;4989690;28;20034;-82
2022/08/20 12:12:22;;;;;;;3.15;0.57;;;28.10;68.50;;;;;;4989830;28;20084;-82
2022/08/20 12:14:53;;;;;;;2.58;1.05;;;28.90;68.30;;;;;;5013937;28;20516;-88
2022/08/20 12:17:23;;;;;;;3.83;1.05;;;28.90;66.60;;;;;;5008752;28;20080;-83
2022/08/20 12:19:51;;;;;;;3.60;1.15;;;28.60;66.40;;;;;;5022555;28;20401;-82
2022/08/20 12:22:17;;;;;;;2.75;1.02;;;28.10;66.90;;;;;;4988891;28;20393;-82
2022/08/20 12:24:43;;;;;;;3.10;1.27;;;27.70;67.20;;;;;;5022412;28;20049;-82
2022/08/20 12:27:11;;;;;;;5.18;1.20;;;27.80;67.20;;;;;;4987257;28;20034;-82
2022/08/20 12:29:39;;;;;;;5.45;1.23;;;27.80;67.10;;;;;;5021492;28;20049;-83
2022/08/20 12:32:06;;;;;;;3.17;1.17;;;27.50;69.10;;;;;;5019506;28;20079;-83
2022/08/20 12:34:37;;;;;;;1.67;0.82;;;27.20;69.10;;;;;;5065806;22;20402;-82
2022/08/20 12:37:12;;;;;;;3.00;1.10;;;26.80;70.00;;;;;;5065643;28;20439;-82
2022/08/20 12:39:43;;;;;;;4.60;1.33;;;26.80;70.80;;;;;;5061579;28;20552;-82
2022/08/20 12:42:10;;;;;;;3.08;1.02;;;27.40;69.20;;;;;;5062966;28;20584;-83
2022/08/20 12:44:37;;;;;;;1.92;0.80;;;27.60;69.60;;;;;;5054788;28;20139;-82
2022/08/20 12:47:10;;;;;;;3.35;0.90;;;27.90;70.60;;;;;;5059475;28;20090;-82
2022/08/20 12:49:36;;;;;;;3.10;1.45;;;28.40;70.90;;;;;;5061773;28;20123;-82
2022/08/20 12:52:03;;;;;;;3.17;1.42;;;28.70;70.40;;;;;;5061703;28;20045;-82
2022/08/20 12:54:28;;;;;;;3.05;0.88;;;29.20;69.00;;;;;;5052953;28;20123;-82
2022/08/20 12:56:54;;;;;;;4.22;1.02;;;29.30;69.70;;;;;;5049724;28;20100;-82
2022/08/20 12:59:23;;;;;;;1.30;1.00;;;29.40;67.20;;;;;;5047808;28;20032;-83